sensor_id;sensor_type;location;lat;lon;timestamp;temperature;humidity
1083;DHT22;530;51.448;7.238;2022-11-15T00:01:52;11.20;99.90
1083;DHT22;530;51.448;7.238;2022-11-15T00:04:17;11.20;99.90
1083;DHT22;530;51.448;7.238;2022-11-15T00:06:43;11.30;99.90
1083;DHT22;530;51.448;7.238;2022-11-15T00:09:08;11.30;99.90
1083;DHT22;530;51.448;7.238;2022-11-15T00:11:34;11.30;99.90
1083;DHT22;530;51.448;7.238;2022-11-15T00:14:00;11.40;99.90
1083;DHT22;530;51.448;7.238;2022-11-15T00:16:27;11.40;99.90
1083;DHT22;530;51.448;7.238;2022-11-15T00:18:53;11.40;99.90
1083;DHT22;530;51.448;7.238;2022-11-15T00:21:19;11.40;99.90
1083;DHT22;530;51.448;7.238;2022-11-15T00:23:44;11.50;99.90
1083;DHT22;530;51.448;7.238;2022-11-15T00:26:12;11.50;99.90
1083;DHT22;530;51.448;7.238;2022-11-15T00:28:38;11.50;99.90
1083;DHT22;530;51.448;7.238;2022-11-15T00:31:06;11.60;99.90
1083;DHT22;530;51.448;7.238;2022-11-15T00:33:33;11.60;99.90
1083;DHT22;530;51.448;7.238;2022-11-15T00:36:04;11.60;99.90
1083;DHT22;530;51.448;7.238;2022-11-15T00:38:35;11.60;99.90
1083;DHT22;530;51.448;7.238;2022-11-15T00:41:02;11.60;99.90
1083;DHT22;530;51.448;7.238;2022-11-15T00:43:28;11.70;99.90
1083;DHT22;530;51.448;7.238;2022-11-15T00:45:53;11.70;99.90
1083;DHT22;530;51.448;7.238;2022-11-15T00:48:19;11.70;99.90
1083;DHT22;530;51.448;7.238;2022-11-15T00:50:45;11.70;99.90
1083;DHT22;530;51.448;7.238;2022-11-15T00:53:11;11.80;99.90
1083;DHT22;530;51.448;7.238;2022-11-15T00:55:36;11.80;99.90
1083;DHT22;530;51.448;7.238;2022-11-15T00:58:02;11.80;99.90
1083;DHT22;530;51.448;7.238;2022-11-15T01:00:28;11.80;99.90
1083;DHT22;530;51.448;7.238;2022-11-15T01:02:53;11.90;99.90
1083;DHT22;530;51.448;7.238;2022-11-15T01:05:19;11.90;99.90
1083;DHT22;530;51.448;7.238;2022-11-15T01:07:45;12.00;99.90
1083;DHT22;530;51.448;7.238;2022-11-15T01:10:11;12.00;99.90
1083;DHT22;530;51.448;7.238;2022-11-15T01:12:37;12.00;99.90
1083;DHT22;530;51.448;7.238;2022-11-15T01:15:03;12.00;99.90
1083;DHT22;530;51.448;7.238;2022-11-15T01:17:30;12.00;99.90
1083;DHT22;530;51.448;7.238;2022-11-15T01:19:56;12.00;99.90
1083;DHT22;530;51.448;7.238;2022-11-15T01:22:22;12.10;99.90
1083;DHT22;530;51.448;7.238;2022-11-15T01:24:50;12.10;99.90
1083;DHT22;530;51.448;7.238;2022-11-15T01:27:16;12.10;99.90
1083;DHT22;530;51.448;7.238;2022-11-15T01:29:41;12.10;99.90
1083;DHT22;530;51.448;7.238;2022-11-15T01:32:07;12.20;99.90
1083;DHT22;530;51.448;7.238;2022-11-15T01:34:33;12.20;99.90
1083;DHT22;530;51.448;7.238;2022-11-15T01:36:59;12.20;99.90
1083;DHT22;530;51.448;7.238;2022-11-15T01:39:25;12.30;99.90
1083;DHT22;530;51.448;7.238;2022-11-15T01:41:51;12.30;99.90
1083;DHT22;530;51.448;7.238;2022-11-15T01:44:43;12.30;99.90
1083;DHT22;530;51.448;7.238;2022-11-15T01:47:13;12.30;99.90
1083;DHT22;530;51.448;7.238;2022-11-15T01:49:50;12.30;99.90
1083;DHT22;530;51.448;7.238;2022-11-15T01:52:19;12.30;99.90
1083;DHT22;530;51.448;7.238;2022-11-15T01:54:46;12.30;99.90
1083;DHT22;530;51.448;7.238;2022-11-15T01:57:13;12.40;99.90
1083;DHT22;530;51.448;7.238;2022-11-15T01:59:43;12.40;99.90
1083;DHT22;530;51.448;7.238;2022-11-15T02:02:10;12.40;99.90
1083;DHT22;530;51.448;7.238;2022-11-15T02:04:44;12.40;99.90
1083;DHT22;530;51.448;7.238;2022-11-15T02:07:12;12.50;99.90
1083;DHT22;530;51.448;7.238;2022-11-15T02:09:38;12.40;99.90
1083;DHT22;530;51.448;7.238;2022-11-15T02:12:05;12.50;99.90
1083;DHT22;530;51.448;7.238;2022-11-15T02:14:33;12.40;99.90
1083;DHT22;530;51.448;7.238;2022-11-15T02:23:03;12.50;99.90
1083;DHT22;530;51.448;7.238;2022-11-15T02:25:52;12.50;99.90
1083;DHT22;530;51.448;7.238;2022-11-15T02:28:32;12.50;99.90
1083;DHT22;530;51.448;7.238;2022-11-15T02:42:04;12.50;99.90
1083;DHT22;530;51.448;7.238;2022-11-15T02:44:53;12.50;99.90
1083;DHT22;530;51.448;7.238;2022-11-15T02:47:22;12.50;99.90
1083;DHT22;530;51.448;7.238;2022-11-15T02:49:54;12.50;99.90
1083;DHT22;530;51.448;7.238;2022-11-15T02:52:21;12.50;99.90
1083;DHT22;530;51.448;7.238;2022-11-15T02:54:59;12.50;99.90
1083;DHT22;530;51.448;7.238;2022-11-15T03:00:19;12.50;99.90
1083;DHT22;530;51.448;7.238;2022-11-15T03:13:37;12.50;99.90
1083;DHT22;530;51.448;7.238;2022-11-15T03:19:30;12.60;99.90
1083;DHT22;530;51.448;7.238;2022-11-15T03:21:59;12.60;99.90
1083;DHT22;530;51.448;7.238;2022-11-15T03:24:28;12.60;99.90
1083;DHT22;530;51.448;7.238;2022-11-15T03:26:55;12.60;99.90
1083;DHT22;530;51.448;7.238;2022-11-15T03:29:26;12.60;99.90
1083;DHT22;530;51.448;7.238;2022-11-15T03:31:57;12.60;99.90
1083;DHT22;530;51.448;7.238;2022-11-15T03:34:30;12.60;99.90
1083;DHT22;530;51.448;7.238;2022-11-15T03:36:57;12.60;99.90
1083;DHT22;530;51.448;7.238;2022-11-15T03:39:24;12.60;99.90
1083;DHT22;530;51.448;7.238;2022-11-15T03:42:16;12.60;99.90
1083;DHT22;530;51.448;7.238;2022-11-15T03:48:13;12.70;99.90
1083;DHT22;530;51.448;7.238;2022-11-15T03:50:41;12.70;99.90
1083;DHT22;530;51.448;7.238;2022-11-15T03:53:08;12.70;99.90
1083;DHT22;530;51.448;7.238;2022-11-15T03:55:33;12.70;99.90
1083;DHT22;530;51.448;7.238;2022-11-15T03:58:00;12.70;99.90
1083;DHT22;530;51.448;7.238;2022-11-15T04:00:27;12.60;99.90
1083;DHT22;530;51.448;7.238;2022-11-15T04:02:53;12.70;99.90
1083;DHT22;530;51.448;7.238;2022-11-15T04:05:19;12.60;99.90
1083;DHT22;530;51.448;7.238;2022-11-15T04:07:44;12.60;99.90
1083;DHT22;530;51.448;7.238;2022-11-15T04:10:11;12.60;99.90
1083;DHT22;530;51.448;7.238;2022-11-15T04:12:39;12.70;99.90
1083;DHT22;530;51.448;7.238;2022-11-15T04:15:14;12.60;99.90
1083;DHT22;530;51.448;7.238;2022-11-15T04:20:09;12.60;99.90
1083;DHT22;530;51.448;7.238;2022-11-15T04:22:55;12.70;99.90
1083;DHT22;530;51.448;7.238;2022-11-15T04:25:41;12.70;99.90
1083;DHT22;530;51.448;7.238;2022-11-15T04:28:06;12.70;99.90
1083;DHT22;530;51.448;7.238;2022-11-15T04:30:32;12.60;99.90
1083;DHT22;530;51.448;7.238;2022-11-15T04:32:58;12.60;99.90
1083;DHT22;530;51.448;7.238;2022-11-15T04:35:24;12.70;99.90
1083;DHT22;530;51.448;7.238;2022-11-15T04:37:49;12.60;99.90
1083;DHT22;530;51.448;7.238;2022-11-15T04:40:15;12.70;99.90
1083;DHT22;530;51.448;7.238;2022-11-15T04:42:41;12.70;99.90
1083;DHT22;530;51.448;7.238;2022-11-15T04:45:09;12.70;99.90
1083;DHT22;530;51.448;7.238;2022-11-15T04:47:35;12.70;99.90
1083;DHT22;530;51.448;7.238;2022-11-15T04:50:00;12.70;99.90
1083;DHT22;530;51.448;7.238;2022-11-15T04:52:26;12.70;99.90
1083;DHT22;530;51.448;7.238;2022-11-15T04:54:51;12.70;99.90
1083;DHT22;530;51.448;7.238;2022-11-15T04:57:17;12.70;99.90
1083;DHT22;530;51.448;7.238;2022-11-15T04:59:43;12.70;99.90
1083;DHT22;530;51.448;7.238;2022-11-15T05:02:09;12.70;99.90
1083;DHT22;530;51.448;7.238;2022-11-15T05:04:34;12.70;99.90
1083;DHT22;530;51.448;7.238;2022-11-15T05:07:00;12.70;99.90
1083;DHT22;530;51.448;7.238;2022-11-15T05:09:26;12.70;99.90
1083;DHT22;530;51.448;7.238;2022-11-15T05:11:51;12.70;99.90
1083;DHT22;530;51.448;7.238;2022-11-15T05:14:17;12.70;99.90
1083;DHT22;530;51.448;7.238;2022-11-15T05:16:43;12.70;99.90
1083;DHT22;530;51.448;7.238;2022-11-15T05:19:08;12.70;99.90
1083;DHT22;530;51.448;7.238;2022-11-15T05:21:35;12.80;99.90
1083;DHT22;530;51.448;7.238;2022-11-15T05:24:00;12.80;99.90
1083;DHT22;530;51.448;7.238;2022-11-15T05:26:27;12.70;99.90
1083;DHT22;530;51.448;7.238;2022-11-15T05:28:54;12.70;99.90
1083;DHT22;530;51.448;7.238;2022-11-15T05:31:20;12.80;99.90
1083;DHT22;530;51.448;7.238;2022-11-15T05:33:46;12.70;99.90
1083;DHT22;530;51.448;7.238;2022-11-15T05:38:44;12.70;99.90
1083;DHT22;530;51.448;7.238;2022-11-15T05:41:11;12.80;99.90
1083;DHT22;530;51.448;7.238;2022-11-15T05:43:38;12.80;99.90
1083;DHT22;530;51.448;7.238;2022-11-15T05:46:05;12.80;99.90
1083;DHT22;530;51.448;7.238;2022-11-15T05:48:31;12.80;99.90
1083;DHT22;530;51.448;7.238;2022-11-15T05:50:58;12.80;99.90
1083;DHT22;530;51.448;7.238;2022-11-15T05:53:25;12.80;99.90
1083;DHT22;530;51.448;7.238;2022-11-15T05:55:51;12.80;99.90
1083;DHT22;530;51.448;7.238;2022-11-15T05:58:18;12.80;99.90
1083;DHT22;530;51.448;7.238;2022-11-15T06:00:44;12.70;99.90
1083;DHT22;530;51.448;7.238;2022-11-15T06:03:10;12.80;99.90
1083;DHT22;530;51.448;7.238;2022-11-15T06:05:36;12.80;99.90
1083;DHT22;530;51.448;7.238;2022-11-15T06:08:01;12.80;99.90
1083;DHT22;530;51.448;7.238;2022-11-15T06:10:27;12.80;99.90
1083;DHT22;530;51.448;7.238;2022-11-15T06:13:04;12.80;99.90
1083;DHT22;530;51.448;7.238;2022-11-15T06:15:31;12.80;99.90
1083;DHT22;530;51.448;7.238;2022-11-15T06:17:57;12.80;99.90
1083;DHT22;530;51.448;7.238;2022-11-15T06:20:24;12.80;99.90
1083;DHT22;530;51.448;7.238;2022-11-15T06:22:49;12.80;99.90
1083;DHT22;530;51.448;7.238;2022-11-15T06:25:15;12.80;99.90
1083;DHT22;530;51.448;7.238;2022-11-15T06:27:41;12.80;99.90
1083;DHT22;530;51.448;7.238;2022-11-15T06:30:07;12.80;99.90
1083;DHT22;530;51.448;7.238;2022-11-15T06:32:33;12.80;99.90
1083;DHT22;530;51.448;7.238;2022-11-15T06:34:58;12.80;99.90
1083;DHT22;530;51.448;7.238;2022-11-15T06:37:24;12.90;99.90
1083;DHT22;530;51.448;7.238;2022-11-15T06:39:49;12.90;99.90
1083;DHT22;530;51.448;7.238;2022-11-15T06:42:15;12.90;99.90
1083;DHT22;530;51.448;7.238;2022-11-15T06:44:41;12.90;99.90
1083;DHT22;530;51.448;7.238;2022-11-15T06:47:06;12.90;99.90
1083;DHT22;530;51.448;7.238;2022-11-15T06:49:32;12.90;99.90
1083;DHT22;530;51.448;7.238;2022-11-15T06:51:57;13.00;99.90
1083;DHT22;530;51.448;7.238;2022-11-15T06:54:23;12.90;99.90
1083;DHT22;530;51.448;7.238;2022-11-15T06:56:49;12.90;99.90
1083;DHT22;530;51.448;7.238;2022-11-15T06:59:14;12.90;99.90
1083;DHT22;530;51.448;7.238;2022-11-15T07:01:40;12.90;99.90
1083;DHT22;530;51.448;7.238;2022-11-15T07:04:06;12.90;99.90
1083;DHT22;530;51.448;7.238;2022-11-15T07:06:31;12.90;99.90
1083;DHT22;530;51.448;7.238;2022-11-15T07:08:57;12.90;99.90
1083;DHT22;530;51.448;7.238;2022-11-15T07:11:23;13.00;99.90
1083;DHT22;530;51.448;7.238;2022-11-15T07:13:48;12.90;99.90
1083;DHT22;530;51.448;7.238;2022-11-15T07:16:14;13.00;99.90
1083;DHT22;530;51.448;7.238;2022-11-15T07:18:40;12.90;99.90
1083;DHT22;530;51.448;7.238;2022-11-15T07:21:08;13.00;99.90
1083;DHT22;530;51.448;7.238;2022-11-15T07:23:38;12.90;99.90
1083;DHT22;530;51.448;7.238;2022-11-15T07:26:04;12.90;99.90
1083;DHT22;530;51.448;7.238;2022-11-15T07:28:30;12.90;99.90
1083;DHT22;530;51.448;7.238;2022-11-15T07:30:56;12.90;99.90
1083;DHT22;530;51.448;7.238;2022-11-15T07:33:22;12.90;99.90
1083;DHT22;530;51.448;7.238;2022-11-15T07:35:47;12.90;99.90
1083;DHT22;530;51.448;7.238;2022-11-15T07:38:17;12.90;99.90
1083;DHT22;530;51.448;7.238;2022-11-15T07:40:46;12.90;99.90
1083;DHT22;530;51.448;7.238;2022-11-15T07:43:12;12.90;99.90
1083;DHT22;530;51.448;7.238;2022-11-15T07:45:42;12.90;99.90
1083;DHT22;530;51.448;7.238;2022-11-15T07:48:08;12.90;99.90
1083;DHT22;530;51.448;7.238;2022-11-15T07:50:33;12.90;99.90
1083;DHT22;530;51.448;7.238;2022-11-15T07:52:59;12.90;99.90
1083;DHT22;530;51.448;7.238;2022-11-15T07:55:27;12.90;99.90
1083;DHT22;530;51.448;7.238;2022-11-15T07:57:59;12.80;99.90
1083;DHT22;530;51.448;7.238;2022-11-15T08:00:25;12.90;99.90
1083;DHT22;530;51.448;7.238;2022-11-15T08:02:50;12.90;99.90
1083;DHT22;530;51.448;7.238;2022-11-15T08:05:16;12.90;99.90
1083;DHT22;530;51.448;7.238;2022-11-15T08:07:42;12.90;99.90
1083;DHT22;530;51.448;7.238;2022-11-15T08:10:08;12.90;99.90
1083;DHT22;530;51.448;7.238;2022-11-15T08:12:34;13.00;99.90
1083;DHT22;530;51.448;7.238;2022-11-15T08:15:00;13.10;99.90
1083;DHT22;530;51.448;7.238;2022-11-15T08:17:25;13.20;99.90
1083;DHT22;530;51.448;7.238;2022-11-15T08:19:51;13.40;99.90
1083;DHT22;530;51.448;7.238;2022-11-15T08:22:18;13.50;99.90
1083;DHT22;530;51.448;7.238;2022-11-15T08:24:44;13.60;99.90
1083;DHT22;530;51.448;7.238;2022-11-15T08:27:09;13.70;99.90
1083;DHT22;530;51.448;7.238;2022-11-15T08:29:49;13.70;99.90
1083;DHT22;530;51.448;7.238;2022-11-15T08:32:15;13.80;99.90
1083;DHT22;530;51.448;7.238;2022-11-15T08:34:41;13.80;99.90
1083;DHT22;530;51.448;7.238;2022-11-15T08:37:07;13.80;99.90
1083;DHT22;530;51.448;7.238;2022-11-15T08:39:32;13.90;99.90
1083;DHT22;530;51.448;7.238;2022-11-15T08:41:58;13.90;99.90
1083;DHT22;530;51.448;7.238;2022-11-15T08:44:24;14.00;99.90
1083;DHT22;530;51.448;7.238;2022-11-15T08:46:49;14.00;99.90
1083;DHT22;530;51.448;7.238;2022-11-15T08:49:15;14.00;99.90
1083;DHT22;530;51.448;7.238;2022-11-15T08:51:41;14.00;99.90
1083;DHT22;530;51.448;7.238;2022-11-15T08:54:07;14.00;99.90
1083;DHT22;530;51.448;7.238;2022-11-15T08:56:32;14.00;99.90
1083;DHT22;530;51.448;7.238;2022-11-15T08:58:58;14.10;99.90
1083;DHT22;530;51.448;7.238;2022-11-15T09:01:24;14.10;99.90
1083;DHT22;530;51.448;7.238;2022-11-15T09:03:49;14.10;99.90
1083;DHT22;530;51.448;7.238;2022-11-15T09:06:15;14.20;99.90
1083;DHT22;530;51.448;7.238;2022-11-15T09:08:41;14.20;99.90
1083;DHT22;530;51.448;7.238;2022-11-15T09:11:08;14.10;99.90
1083;DHT22;530;51.448;7.238;2022-11-15T09:13:34;14.10;99.90
1083;DHT22;530;51.448;7.238;2022-11-15T09:16:01;14.10;99.90
1083;DHT22;530;51.448;7.238;2022-11-15T09:18:26;14.10;99.90
1083;DHT22;530;51.448;7.238;2022-11-15T09:20:58;14.10;99.90
1083;DHT22;530;51.448;7.238;2022-11-15T09:23:24;14.10;99.90
1083;DHT22;530;51.448;7.238;2022-11-15T09:25:51;14.10;99.90
1083;DHT22;530;51.448;7.238;2022-11-15T09:28:16;14.20;99.90
1083;DHT22;530;51.448;7.238;2022-11-15T09:30:42;14.20;99.90
1083;DHT22;530;51.448;7.238;2022-11-15T09:33:09;14.30;99.90
1083;DHT22;530;51.448;7.238;2022-11-15T09:35:35;14.30;99.90
1083;DHT22;530;51.448;7.238;2022-11-15T09:38:02;14.30;99.90
1083;DHT22;530;51.448;7.238;2022-11-15T09:40:29;14.40;99.90
1083;DHT22;530;51.448;7.238;2022-11-15T09:43:09;14.30;99.90
1083;DHT22;530;51.448;7.238;2022-11-15T09:49:03;14.30;99.90
1083;DHT22;530;51.448;7.238;2022-11-15T09:51:38;14.40;99.90
1083;DHT22;530;51.448;7.238;2022-11-15T09:54:39;14.40;99.90
1083;DHT22;530;51.448;7.238;2022-11-15T09:57:13;14.60;99.90
1083;DHT22;530;51.448;7.238;2022-11-15T10:05:27;15.20;99.90
1083;DHT22;530;51.448;7.238;2022-11-15T10:10:37;15.20;99.90
1083;DHT22;530;51.448;7.238;2022-11-15T10:13:06;15.20;99.90
1083;DHT22;530;51.448;7.238;2022-11-15T10:15:33;15.10;99.90
1083;DHT22;530;51.448;7.238;2022-11-15T10:18:52;15.10;99.90
1083;DHT22;530;51.448;7.238;2022-11-15T10:21:23;15.00;99.90
1083;DHT22;530;51.448;7.238;2022-11-15T10:23:50;14.90;99.90
1083;DHT22;530;51.448;7.238;2022-11-15T10:26:17;14.90;99.90
1083;DHT22;530;51.448;7.238;2022-11-15T10:28:43;14.80;99.90
1083;DHT22;530;51.448;7.238;2022-11-15T10:31:23;14.80;99.90
1083;DHT22;530;51.448;7.238;2022-11-15T10:33:49;14.80;99.90
1083;DHT22;530;51.448;7.238;2022-11-15T10:36:21;14.80;99.90
1083;DHT22;530;51.448;7.238;2022-11-15T10:38:53;14.80;99.90
1083;DHT22;530;51.448;7.238;2022-11-15T10:46:36;14.70;99.90
1083;DHT22;530;51.448;7.238;2022-11-15T10:49:23;14.70;99.90
1083;DHT22;530;51.448;7.238;2022-11-15T10:54:56;14.80;99.90
1083;DHT22;530;51.448;7.238;2022-11-15T10:58:01;14.70;99.90
1083;DHT22;530;51.448;7.238;2022-11-15T11:05:47;14.60;99.90
1083;DHT22;530;51.448;7.238;2022-11-15T11:10:39;14.60;99.90
1083;DHT22;530;51.448;7.238;2022-11-15T11:13:25;14.60;99.90
1083;DHT22;530;51.448;7.238;2022-11-15T11:21:37;14.70;99.90
1083;DHT22;530;51.448;7.238;2022-11-15T11:24:31;14.60;99.90
1083;DHT22;530;51.448;7.238;2022-11-15T11:32:48;14.70;99.90
1083;DHT22;530;51.448;7.238;2022-11-15T11:35:29;14.90;99.90
1083;DHT22;530;51.448;7.238;2022-11-15T11:40:49;15.20;99.90
1083;DHT22;530;51.448;7.238;2022-11-15T11:49:25;15.50;99.90
1083;DHT22;530;51.448;7.238;2022-11-15T11:57:10;15.70;99.90
1083;DHT22;530;51.448;7.238;2022-11-15T11:59:42;15.70;99.30
1083;DHT22;530;51.448;7.238;2022-11-15T12:02:20;15.70;99.80
1083;DHT22;530;51.448;7.238;2022-11-15T12:04:53;15.70;98.60
1083;DHT22;530;51.448;7.238;2022-11-15T12:07:24;15.60;98.60
1083;DHT22;530;51.448;7.238;2022-11-15T12:10:04;15.50;98.70
1083;DHT22;530;51.448;7.238;2022-11-15T12:12:48;15.40;99.00
1083;DHT22;530;51.448;7.238;2022-11-15T12:16:29;15.30;99.40
1083;DHT22;530;51.448;7.238;2022-11-15T12:18:35;15.30;98.50
1083;DHT22;530;51.448;7.238;2022-11-15T12:21:14;15.20;98.80
1083;DHT22;530;51.448;7.238;2022-11-15T12:23:57;15.10;98.30
1083;DHT22;530;51.448;7.238;2022-11-15T12:26:28;15.00;98.40
1083;DHT22;530;51.448;7.238;2022-11-15T12:29:00;15.00;98.70
1083;DHT22;530;51.448;7.238;2022-11-15T12:34:03;14.90;99.10
1083;DHT22;530;51.448;7.238;2022-11-15T12:36:38;14.80;98.90
1083;DHT22;530;51.448;7.238;2022-11-15T12:39:07;14.80;98.70
1083;DHT22;530;51.448;7.238;2022-11-15T13:02:42;14.50;99.90
1083;DHT22;530;51.448;7.238;2022-11-15T13:17:39;14.50;99.90
1083;DHT22;530;51.448;7.238;2022-11-15T13:22:43;14.40;99.90
1083;DHT22;530;51.448;7.238;2022-11-15T13:25:42;14.40;99.90
1083;DHT22;530;51.448;7.238;2022-11-15T13:30:39;14.40;99.90
1083;DHT22;530;51.448;7.238;2022-11-15T13:33:14;14.50;99.90
1083;DHT22;530;51.448;7.238;2022-11-15T13:35:42;14.50;99.90
1083;DHT22;530;51.448;7.238;2022-11-15T13:38:27;14.40;99.90
1083;DHT22;530;51.448;7.238;2022-11-15T13:40:53;14.40;99.90
1083;DHT22;530;51.448;7.238;2022-11-15T13:46:12;14.30;99.90
1083;DHT22;530;51.448;7.238;2022-11-15T13:48:39;14.30;99.90
1083;DHT22;530;51.448;7.238;2022-11-15T13:53:42;14.30;99.90
1083;DHT22;530;51.448;7.238;2022-11-15T13:56:09;14.30;99.90
1083;DHT22;530;51.448;7.238;2022-11-15T13:58:38;14.30;99.90
1083;DHT22;530;51.448;7.238;2022-11-15T14:01:05;14.30;99.90
1083;DHT22;530;51.448;7.238;2022-11-15T14:03:59;14.30;99.90
1083;DHT22;530;51.448;7.238;2022-11-15T14:06:28;14.20;99.90
1083;DHT22;530;51.448;7.238;2022-11-15T14:11:36;14.20;99.90
1083;DHT22;530;51.448;7.238;2022-11-15T14:16:38;14.10;99.90
1083;DHT22;530;51.448;7.238;2022-11-15T14:19:08;14.10;99.90
1083;DHT22;530;51.448;7.238;2022-11-15T14:21:34;14.10;99.90
1083;DHT22;530;51.448;7.238;2022-11-15T14:24:20;14.10;99.90
1083;DHT22;530;51.448;7.238;2022-11-15T14:26:46;14.10;99.90
1083;DHT22;530;51.448;7.238;2022-11-15T14:29:25;14.10;99.90
1083;DHT22;530;51.448;7.238;2022-11-15T14:31:52;14.10;99.90
1083;DHT22;530;51.448;7.238;2022-11-15T14:34:18;14.10;99.90
1083;DHT22;530;51.448;7.238;2022-11-15T14:36:44;14.00;99.90
1083;DHT22;530;51.448;7.238;2022-11-15T14:39:09;14.00;99.90
1083;DHT22;530;51.448;7.238;2022-11-15T14:41:36;14.00;99.90
1083;DHT22;530;51.448;7.238;2022-11-15T14:44:05;14.00;99.90
1083;DHT22;530;51.448;7.238;2022-11-15T14:46:31;14.00;99.90
1083;DHT22;530;51.448;7.238;2022-11-15T14:48:57;14.00;99.90
1083;DHT22;530;51.448;7.238;2022-11-15T14:51:23;14.00;99.90
1083;DHT22;530;51.448;7.238;2022-11-15T14:53:48;14.00;99.90
1083;DHT22;530;51.448;7.238;2022-11-15T14:56:15;14.00;99.90
1083;DHT22;530;51.448;7.238;2022-11-15T14:58:41;13.90;99.90
1083;DHT22;530;51.448;7.238;2022-11-15T15:01:26;13.90;99.90
1083;DHT22;530;51.448;7.238;2022-11-15T15:03:52;13.90;99.90
1083;DHT22;530;51.448;7.238;2022-11-15T15:06:21;13.90;99.90
1083;DHT22;530;51.448;7.238;2022-11-15T15:08:46;13.90;99.90
1083;DHT22;530;51.448;7.238;2022-11-15T15:11:25;13.90;99.90
1083;DHT22;530;51.448;7.238;2022-11-15T15:13:53;13.90;99.90
1083;DHT22;530;51.448;7.238;2022-11-15T15:16:21;13.90;99.90
1083;DHT22;530;51.448;7.238;2022-11-15T15:18:47;13.90;99.90
1083;DHT22;530;51.448;7.238;2022-11-15T15:21:22;13.90;99.90
1083;DHT22;530;51.448;7.238;2022-11-15T15:23:49;13.90;99.90
1083;DHT22;530;51.448;7.238;2022-11-15T15:26:15;13.80;99.90
1083;DHT22;530;51.448;7.238;2022-11-15T15:28:41;13.90;99.90
1083;DHT22;530;51.448;7.238;2022-11-15T15:31:08;13.80;99.90
1083;DHT22;530;51.448;7.238;2022-11-15T15:33:34;13.80;99.90
1083;DHT22;530;51.448;7.238;2022-11-15T15:36:00;13.80;99.90
1083;DHT22;530;51.448;7.238;2022-11-15T15:38:26;13.80;99.90
1083;DHT22;530;51.448;7.238;2022-11-15T15:40:52;13.80;99.90
1083;DHT22;530;51.448;7.238;2022-11-15T15:43:17;13.80;99.90
1083;DHT22;530;51.448;7.238;2022-11-15T15:45:43;13.80;99.90
1083;DHT22;530;51.448;7.238;2022-11-15T15:48:15;13.70;99.90
1083;DHT22;530;51.448;7.238;2022-11-15T15:50:41;13.70;99.90
1083;DHT22;530;51.448;7.238;2022-11-15T15:53:11;13.80;99.90
1083;DHT22;530;51.448;7.238;2022-11-15T15:55:37;13.80;99.90
1083;DHT22;530;51.448;7.238;2022-11-15T15:58:04;13.70;99.90
1083;DHT22;530;51.448;7.238;2022-11-15T16:00:30;13.70;99.90
1083;DHT22;530;51.448;7.238;2022-11-15T16:02:58;13.70;99.90
1083;DHT22;530;51.448;7.238;2022-11-15T16:05:24;13.70;99.90
1083;DHT22;530;51.448;7.238;2022-11-15T16:07:50;13.70;99.90
1083;DHT22;530;51.448;7.238;2022-11-15T16:10:25;13.70;99.90
1083;DHT22;530;51.448;7.238;2022-11-15T16:12:51;13.70;99.90
1083;DHT22;530;51.448;7.238;2022-11-15T16:15:18;13.70;99.90
1083;DHT22;530;51.448;7.238;2022-11-15T16:17:52;13.70;99.90
1083;DHT22;530;51.448;7.238;2022-11-15T16:20:48;13.70;99.90
1083;DHT22;530;51.448;7.238;2022-11-15T16:23:17;13.70;99.90
1083;DHT22;530;51.448;7.238;2022-11-15T16:25:52;13.70;99.90
1083;DHT22;530;51.448;7.238;2022-11-15T16:28:27;13.70;99.90
1083;DHT22;530;51.448;7.238;2022-11-15T16:31:09;13.70;99.90
1083;DHT22;530;51.448;7.238;2022-11-15T16:33:36;13.70;99.90
1083;DHT22;530;51.448;7.238;2022-11-15T16:36:03;13.70;99.90
1083;DHT22;530;51.448;7.238;2022-11-15T16:38:29;13.70;99.90
1083;DHT22;530;51.448;7.238;2022-11-15T16:40:55;13.70;99.90
1083;DHT22;530;51.448;7.238;2022-11-15T16:43:21;13.70;99.90
1083;DHT22;530;51.448;7.238;2022-11-15T16:45:48;13.70;99.90
1083;DHT22;530;51.448;7.238;2022-11-15T16:48:24;13.70;99.90
1083;DHT22;530;51.448;7.238;2022-11-15T16:50:54;13.70;99.90
1083;DHT22;530;51.448;7.238;2022-11-15T16:53:20;13.70;99.90
1083;DHT22;530;51.448;7.238;2022-11-15T16:55:45;13.70;99.90
1083;DHT22;530;51.448;7.238;2022-11-15T16:58:11;13.70;99.90
1083;DHT22;530;51.448;7.238;2022-11-15T17:00:37;13.70;99.90
1083;DHT22;530;51.448;7.238;2022-11-15T17:03:02;13.70;99.90
1083;DHT22;530;51.448;7.238;2022-11-15T17:05:29;13.70;99.90
1083;DHT22;530;51.448;7.238;2022-11-15T17:07:55;13.80;99.90
1083;DHT22;530;51.448;7.238;2022-11-15T17:10:22;13.80;99.90
1083;DHT22;530;51.448;7.238;2022-11-15T17:12:49;13.80;99.90
1083;DHT22;530;51.448;7.238;2022-11-15T17:15:14;13.70;99.90
1083;DHT22;530;51.448;7.238;2022-11-15T17:17:41;13.80;99.90
1083;DHT22;530;51.448;7.238;2022-11-15T17:20:13;13.80;99.90
1083;DHT22;530;51.448;7.238;2022-11-15T17:22:39;13.80;99.90
1083;DHT22;530;51.448;7.238;2022-11-15T17:25:05;13.80;99.90
1083;DHT22;530;51.448;7.238;2022-11-15T17:27:30;13.80;99.90
1083;DHT22;530;51.448;7.238;2022-11-15T17:29:56;13.80;99.90
1083;DHT22;530;51.448;7.238;2022-11-15T17:32:22;13.80;99.90
1083;DHT22;530;51.448;7.238;2022-11-15T17:34:47;13.80;99.90
1083;DHT22;530;51.448;7.238;2022-11-15T17:37:13;13.80;99.90
1083;DHT22;530;51.448;7.238;2022-11-15T17:39:39;13.80;99.90
1083;DHT22;530;51.448;7.238;2022-11-15T17:42:04;13.80;99.90
1083;DHT22;530;51.448;7.238;2022-11-15T17:44:31;13.80;99.90
1083;DHT22;530;51.448;7.238;2022-11-15T17:46:57;13.80;99.90
1083;DHT22;530;51.448;7.238;2022-11-15T17:49:23;13.80;99.90
1083;DHT22;530;51.448;7.238;2022-11-15T17:51:48;13.80;99.90
1083;DHT22;530;51.448;7.238;2022-11-15T17:54:14;13.80;99.90
1083;DHT22;530;51.448;7.238;2022-11-15T17:56:40;13.80;99.90
1083;DHT22;530;51.448;7.238;2022-11-15T17:59:06;13.80;99.90
1083;DHT22;530;51.448;7.238;2022-11-15T18:01:34;13.80;99.90
1083;DHT22;530;51.448;7.238;2022-11-15T18:04:02;13.80;99.90
1083;DHT22;530;51.448;7.238;2022-11-15T18:06:30;13.70;99.90
1083;DHT22;530;51.448;7.238;2022-11-15T18:08:56;13.80;99.90
1083;DHT22;530;51.448;7.238;2022-11-15T18:11:27;13.80;99.90
1083;DHT22;530;51.448;7.238;2022-11-15T18:13:58;13.80;99.90
1083;DHT22;530;51.448;7.238;2022-11-15T18:16:26;13.80;99.90
1083;DHT22;530;51.448;7.238;2022-11-15T18:18:53;13.80;99.90
1083;DHT22;530;51.448;7.238;2022-11-15T18:21:37;13.80;99.90
1083;DHT22;530;51.448;7.238;2022-11-15T18:24:22;13.80;99.90
1083;DHT22;530;51.448;7.238;2022-11-15T18:26:47;13.90;99.90
1083;DHT22;530;51.448;7.238;2022-11-15T18:29:13;13.90;99.90
1083;DHT22;530;51.448;7.238;2022-11-15T18:31:39;13.90;99.90
1083;DHT22;530;51.448;7.238;2022-11-15T18:34:05;13.90;99.90
1083;DHT22;530;51.448;7.238;2022-11-15T18:36:31;13.90;99.90
1083;DHT22;530;51.448;7.238;2022-11-15T18:39:02;13.90;99.90
1083;DHT22;530;51.448;7.238;2022-11-15T18:41:29;13.90;99.90
1083;DHT22;530;51.448;7.238;2022-11-15T18:43:59;13.90;99.90
1083;DHT22;530;51.448;7.238;2022-11-15T18:46:28;13.90;99.90
1083;DHT22;530;51.448;7.238;2022-11-15T18:48:55;13.90;99.90
1083;DHT22;530;51.448;7.238;2022-11-15T18:51:24;13.90;99.90
1083;DHT22;530;51.448;7.238;2022-11-15T18:53:55;13.90;99.90
1083;DHT22;530;51.448;7.238;2022-11-15T18:56:22;13.90;99.90